createdAt,value
2022-12-23T00:01:46.405Z,97344.91
2022-12-23T00:04:13.121Z,97348.34
2022-12-23T00:06:39.845Z,97348.34
2022-12-23T00:09:06.456Z,97343.09
2022-12-23T00:11:33.081Z,97350.06
2022-12-23T00:14:21.609Z,97351.81
2022-12-23T00:16:50.756Z,97354.38
2022-12-23T00:19:17.671Z,97351.75
2022-12-23T00:21:44.316Z,97348.28
2022-12-23T00:24:11.650Z,97353.47
2022-12-23T00:26:38.818Z,97345.72
2022-12-23T00:29:05.630Z,97344.09
2022-12-23T00:31:32.363Z,97351.06
2022-12-23T00:33:59.201Z,97352.00
2022-12-23T00:36:30.153Z,97349.31
2022-12-23T00:39:18.180Z,97345.91
2022-12-23T00:42:03.856Z,97340.66
2022-12-23T00:44:30.508Z,97330.25
2022-12-23T00:46:57.289Z,97331.13
2022-12-23T00:49:42.051Z,97329.41
2022-12-23T00:52:15.552Z,97339.72
2022-12-23T00:54:42.348Z,97341.38
2022-12-23T00:57:09.107Z,97345.72
2022-12-23T00:59:35.734Z,97334.50
2022-12-23T01:02:21.030Z,97333.66
2022-12-23T01:05:06.251Z,97331.09
2022-12-23T01:07:32.851Z,97341.56
2022-12-23T01:09:59.405Z,97333.81
2022-12-23T01:12:26.009Z,97328.63
2022-12-23T01:14:52.670Z,97323.38
2022-12-23T01:17:19.414Z,97325.84
2022-12-23T01:19:46.084Z,97329.25
2022-12-23T01:22:12.707Z,97312.84
2022-12-23T01:24:39.264Z,97318.84
2022-12-23T01:27:05.838Z,97322.31
2022-12-23T01:29:33.950Z,97323.22
2022-12-23T01:32:00.617Z,97313.63
2022-12-23T01:34:32.564Z,97320.50
2022-12-23T01:37:02.908Z,97306.66
2022-12-23T01:39:29.509Z,97314.44
2022-12-23T01:42:14.739Z,97315.25
2022-12-23T01:45:00.924Z,97310.25
2022-12-23T01:47:49.551Z,97308.59
2022-12-23T01:50:58.017Z,97309.50
2022-12-23T01:53:29.930Z,97311.19
2022-12-23T01:55:59.256Z,97307.69
2022-12-23T01:58:25.806Z,97309.47
2022-12-23T02:01:14.263Z,97306.91
2022-12-23T02:03:44.344Z,97315.59
2022-12-23T02:06:42.831Z,97311.25
2022-12-23T02:09:20.664Z,97319.00
2022-12-23T02:11:53.573Z,97316.44
2022-12-23T02:15:11.687Z,97316.44
2022-12-23T02:17:41.187Z,97313.72
2022-12-23T02:20:34.213Z,97306.81
2022-12-23T02:23:06.501Z,97301.63
2022-12-23T02:25:48.340Z,97293.75
2022-12-23T02:28:48.901Z,97294.59
2022-12-23T02:31:29.858Z,97301.53
2022-12-23T02:34:42.894Z,97303.28
2022-12-23T02:37:18.711Z,97290.22
2022-12-23T02:40:07.231Z,97305.78
2022-12-23T02:42:59.972Z,97306.63
2022-12-23T02:45:50.294Z,97297.91
2022-12-23T02:48:32.079Z,97291.75
2022-12-23T02:51:00.880Z,97291.84
2022-12-23T02:53:39.781Z,97301.31
2022-12-23T02:56:09.558Z,97300.47
2022-12-23T02:58:42.922Z,97297.00
2022-12-23T03:01:13.305Z,97293.66
2022-12-23T03:03:41.806Z,97294.56
2022-12-23T03:06:17.876Z,97297.97
2022-12-23T03:08:45.722Z,97293.63
2022-12-23T03:11:15.343Z,97293.59
2022-12-23T03:13:41.937Z,97291.91
2022-12-23T03:16:17.382Z,97283.34
2022-12-23T03:19:08.084Z,97284.22
2022-12-23T03:21:57.205Z,97280.63
2022-12-23T03:24:37.730Z,97284.00
2022-12-23T03:27:08.646Z,97280.56
2022-12-23T03:29:35.200Z,97272.75
2022-12-23T03:32:05.108Z,97264.03
2022-12-23T03:34:37.799Z,97262.25
2022-12-23T03:37:08.533Z,97261.41
2022-12-23T03:39:45.656Z,97271.75
2022-12-23T03:42:19.268Z,97266.56
2022-12-23T03:45:19.315Z,97266.47
2022-12-23T03:47:47.009Z,97267.41
2022-12-23T03:50:17.487Z,97263.06
2022-12-23T03:52:45.639Z,97268.25
2022-12-23T03:55:20.461Z,97283.91
2022-12-23T03:58:09.263Z,97277.00
2022-12-23T04:00:42.565Z,97272.63
2022-12-23T04:03:16.160Z,97269.19
2022-12-23T04:05:50.117Z,97278.72
2022-12-23T04:08:24.205Z,97276.13
2022-12-23T04:10:51.364Z,97283.06
2022-12-23T04:13:18.067Z,97288.25
2022-12-23T04:15:45.076Z,97283.97
2022-12-23T04:18:12.381Z,97279.53
2022-12-23T04:20:39.117Z,97281.31
2022-12-23T04:23:05.840Z,97287.53
2022-12-23T04:25:32.536Z,97279.69
2022-12-23T04:27:59.224Z,97265.75
2022-12-23T04:30:31.517Z,97269.16
2022-12-23T04:33:00.851Z,97273.50
2022-12-23T04:35:27.438Z,97269.16
2022-12-23T04:37:54.106Z,97259.59
2022-12-23T04:40:20.699Z,97262.09
2022-12-23T04:42:47.336Z,97262.03
2022-12-23T04:45:14.095Z,97253.34
2022-12-23T04:47:40.856Z,97262.00
2022-12-23T04:50:08.503Z,97268.00
2022-12-23T04:52:35.103Z,97270.66
2022-12-23T04:55:01.736Z,97269.03
2022-12-23T04:57:28.408Z,97264.84
2022-12-23T04:59:55.076Z,97272.78
2022-12-23T05:02:21.878Z,97277.88
2022-12-23T05:04:48.596Z,97272.66
2022-12-23T05:07:15.339Z,97269.28
2022-12-23T05:09:41.987Z,97265.81
2022-12-23T05:12:08.593Z,97255.31
2022-12-23T05:14:35.217Z,97258.78
2022-12-23T05:17:07.147Z,97265.72
2022-12-23T05:19:34.241Z,97270.00
2022-12-23T05:22:00.801Z,97276.06
2022-12-23T05:24:27.383Z,97268.31
2022-12-23T05:26:59.672Z,97261.28
2022-12-23T05:29:27.304Z,97267.41
2022-12-23T05:31:54.242Z,97267.41
2022-12-23T05:34:21.120Z,97270.88
2022-12-23T05:36:47.887Z,97267.28
2022-12-23T05:39:14.728Z,97277.69
2022-12-23T05:41:41.382Z,97277.66
2022-12-23T05:44:10.752Z,97282.88
2022-12-23T05:46:37.712Z,97287.25
2022-12-23T05:49:04.475Z,97276.84
2022-12-23T05:51:31.135Z,97284.44
2022-12-23T05:53:58.087Z,97285.25
2022-12-23T05:56:24.725Z,97292.34
2022-12-23T05:58:51.372Z,97296.56
2022-12-23T06:01:18.506Z,97288.72
2022-12-23T06:03:45.264Z,97289.72
2022-12-23T06:06:12.104Z,97282.00
2022-12-23T06:08:38.907Z,97286.34
2022-12-23T06:11:05.902Z,97301.78
2022-12-23T06:13:32.580Z,97296.53
2022-12-23T06:15:59.313Z,97298.19
2022-12-23T06:18:26.005Z,97305.91
2022-12-23T06:20:52.714Z,97308.41
2022-12-23T06:23:19.314Z,97307.56
2022-12-23T06:25:47.185Z,97308.47
2022-12-23T06:28:13.841Z,97311.03
2022-12-23T06:30:40.531Z,97303.03
2022-12-23T06:33:07.152Z,97299.31
2022-12-23T06:35:33.906Z,97303.56
2022-12-23T06:38:01.087Z,97299.34
2022-12-23T06:40:29.244Z,97297.69
2022-12-23T06:42:56.112Z,97293.22
2022-12-23T06:45:22.703Z,97285.34
2022-12-23T06:47:49.406Z,97288.69
2022-12-23T06:50:16.127Z,97285.28
2022-12-23T06:52:42.818Z,97301.34
2022-12-23T06:55:09.690Z,97301.59
2022-12-23T06:57:36.741Z,97299.94
2022-12-23T07:00:07.319Z,97297.16
2022-12-23T07:02:34.201Z,97297.03
2022-12-23T07:05:00.943Z,97302.91
2022-12-23T07:07:27.628Z,97296.75
2022-12-23T07:09:54.190Z,97300.16
2022-12-23T07:12:20.889Z,97304.63
2022-12-23T07:14:47.502Z,97304.59
2022-12-23T07:17:14.280Z,97309.69
2022-12-23T07:19:41.808Z,97306.88
2022-12-23T07:22:10.191Z,97307.63
2022-12-23T07:24:37.809Z,97319.91
2022-12-23T07:27:04.831Z,97318.09
2022-12-23T07:29:31.540Z,97328.44
2022-12-23T07:31:59.066Z,97325.69
2022-12-23T07:34:25.875Z,97321.19
2022-12-23T07:36:52.763Z,97318.63
2022-12-23T07:39:19.928Z,97321.19
2022-12-23T07:41:46.653Z,97329.81
2022-12-23T07:44:13.701Z,97325.59
2022-12-23T07:46:41.583Z,97325.50
2022-12-23T07:49:08.260Z,97325.47
2022-12-23T07:51:34.857Z,97325.47
2022-12-23T07:54:01.669Z,97327.34
2022-12-23T07:56:28.320Z,97322.22
2022-12-23T07:58:55.281Z,97327.25
2022-12-23T08:01:22.668Z,97326.13
2022-12-23T08:03:49.517Z,97329.53
2022-12-23T08:06:18.448Z,97332.03
2022-12-23T08:08:46.805Z,97332.94
2022-12-23T08:11:15.194Z,97325.19
2022-12-23T08:13:44.042Z,97327.56
2022-12-23T08:16:11.510Z,97334.69
2022-12-23T08:18:40.122Z,97335.50
2022-12-23T08:21:14.967Z,97337.16
2022-12-23T08:23:43.593Z,97340.72
2022-12-23T08:26:13.021Z,97339.75
2022-12-23T08:28:41.247Z,97348.13
2022-12-23T08:31:10.444Z,97343.66
2022-12-23T08:33:38.804Z,97337.56
2022-12-23T08:36:07.717Z,97330.75
2022-12-23T08:38:35.673Z,97335.97
2022-12-23T08:41:02.556Z,97336.72
2022-12-23T08:43:35.619Z,97334.28
2022-12-23T08:46:03.440Z,97327.38
2022-12-23T08:48:30.340Z,97327.38
2022-12-23T08:50:57.049Z,97334.22
2022-12-23T08:53:23.709Z,97327.06
2022-12-23T08:55:50.303Z,97331.22
2022-12-23T08:58:16.940Z,97333.81
2022-12-23T09:00:43.578Z,97320.66
2022-12-23T09:03:10.677Z,97341.59
2022-12-23T09:05:41.560Z,97329.34
2022-12-23T09:08:09.238Z,97338.19
2022-12-23T09:10:47.335Z,97339.84
2022-12-23T09:13:22.327Z,97323.34
2022-12-23T09:15:53.721Z,97332.81
2022-12-23T09:18:20.845Z,97333.84
2022-12-23T09:20:48.672Z,97331.34
2022-12-23T09:23:16.519Z,97323.38
2022-12-23T09:25:43.150Z,97320.56
2022-12-23T09:28:09.833Z,97320.56
2022-12-23T09:30:39.467Z,97313.53
2022-12-23T09:33:06.494Z,97314.38
2022-12-23T09:35:36.466Z,97319.47
2022-12-23T09:38:03.897Z,97322.91
2022-12-23T09:40:33.541Z,97332.59
2022-12-23T09:43:18.012Z,97324.75
2022-12-23T09:46:04.775Z,97325.47
2022-12-23T09:48:59.599Z,97327.22
2022-12-23T09:51:28.160Z,97324.63
2022-12-23T09:54:22.467Z,97322.75
2022-12-23T09:57:23.739Z,97331.47
2022-12-23T10:00:17.004Z,97327.84
2022-12-23T10:03:14.401Z,97319.91
2022-12-23T10:05:58.530Z,97323.16
2022-12-23T10:08:33.655Z,97331.78
2022-12-23T10:11:12.306Z,97327.59
2022-12-23T10:13:44.290Z,97322.44
2022-12-23T10:16:19.655Z,97312.09
2022-12-23T10:18:48.427Z,97294.44
2022-12-23T10:21:30.340Z,97296.25
2022-12-23T10:23:56.945Z,97297.13
2022-12-23T10:26:35.029Z,97305.81
2022-12-23T10:29:34.486Z,97300.44
2022-12-23T10:32:22.147Z,97304.53
2022-12-23T10:34:51.768Z,97312.84
2022-12-23T10:37:31.318Z,97314.69
2022-12-23T10:40:11.883Z,97314.44
2022-12-23T10:43:17.907Z,97318.91
2022-12-23T10:46:07.871Z,97325.28
2022-12-23T10:48:53.054Z,97315.38
2022-12-23T10:51:43.901Z,97304.78
2022-12-23T10:54:16.951Z,97308.72
2022-12-23T10:56:46.334Z,97314.81
2022-12-23T10:59:16.026Z,97310.47
2022-12-23T11:01:47.756Z,97304.16
2022-12-23T11:04:18.034Z,97299.00
2022-12-23T11:07:10.572Z,97297.88
2022-12-23T11:09:59.352Z,97299.38
2022-12-23T11:12:42.227Z,97297.53
2022-12-23T11:15:25.223Z,97292.38
2022-12-23T11:18:19.099Z,97293.09
2022-12-23T11:21:01.776Z,97294.84
2022-12-23T11:23:32.308Z,97291.97
2022-12-23T11:26:11.732Z,97290.03
2022-12-23T11:28:40.955Z,97296.03
2022-12-23T11:31:14.535Z,97292.44
2022-12-23T11:33:49.288Z,97295.13
2022-12-23T11:36:24.218Z,97298.69
2022-12-23T11:39:02.409Z,97295.97
2022-12-23T11:41:35.088Z,97291.59
2022-12-23T11:44:04.518Z,97297.66
2022-12-23T11:46:34.008Z,97287.75
2022-12-23T11:49:05.673Z,97291.69
2022-12-23T11:51:32.592Z,97294.47
2022-12-23T11:54:01.648Z,97298.28
2022-12-23T11:56:35.527Z,97298.16
2022-12-23T11:59:29.208Z,97300.78
2022-12-23T12:02:01.565Z,97306.22
2022-12-23T12:04:33.007Z,97300.06
2022-12-23T12:07:00.814Z,97302.69
2022-12-23T12:09:30.885Z,97297.94
2022-12-23T12:12:04.890Z,97303.00
2022-12-23T12:14:43.437Z,97303.16
2022-12-23T12:17:44.288Z,97300.53
2022-12-23T12:20:24.736Z,97298.00
2022-12-23T12:22:59.583Z,97301.78
2022-12-23T12:25:39.550Z,97296.56
2022-12-23T12:28:13.827Z,97299.22
2022-12-23T12:31:12.916Z,97291.69
2022-12-23T12:34:11.849Z,97294.91
2022-12-23T12:36:52.835Z,97297.78
2022-12-23T12:39:36.350Z,97292.47
2022-12-23T12:42:31.565Z,97291.56
2022-12-23T12:45:22.245Z,97289.84
2022-12-23T12:48:18.249Z,97293.19
2022-12-23T12:50:59.791Z,97280.03
2022-12-23T12:53:28.343Z,97283.53
2022-12-23T12:56:15.817Z,97281.06
2022-12-23T12:58:44.698Z,97275.63
2022-12-23T13:01:17.287Z,97284.38
2022-12-23T13:03:47.060Z,97282.94
2022-12-23T13:06:28.820Z,97280.47
2022-12-23T13:09:13.908Z,97280.31
2022-12-23T13:11:55.157Z,97287.81
2022-12-23T13:14:21.734Z,97287.06
2022-12-23T13:17:03.764Z,97286.00
2022-12-23T13:19:51.450Z,97284.94
2022-12-23T13:22:28.071Z,97287.38
2022-12-23T13:25:12.900Z,97292.28
2022-12-23T13:27:45.625Z,97292.56
2022-12-23T13:31:05.019Z,97295.84
2022-12-23T13:33:48.679Z,97298.47
2022-12-23T13:36:45.555Z,97290.44
2022-12-23T13:39:56.123Z,97283.44
2022-12-23T13:42:52.790Z,97291.09
2022-12-23T13:45:42.835Z,97276.25
2022-12-23T13:48:18.044Z,97272.16
2022-12-23T13:50:55.405Z,97274.84
2022-12-23T13:54:05.095Z,97284.66
2022-12-23T13:57:08.960Z,97281.41
2022-12-23T13:59:58.416Z,97281.44
2022-12-23T14:03:02.701Z,97283.25
2022-12-23T14:05:41.103Z,97283.06
2022-12-23T14:08:19.805Z,97284.81
2022-12-23T14:11:00.870Z,97276.13
2022-12-23T14:13:41.654Z,97281.34
2022-12-23T14:16:39.854Z,97279.81
2022-12-23T14:19:46.303Z,97282.38
2022-12-23T14:22:41.579Z,97284.03
2022-12-23T14:25:30.021Z,97279.75
2022-12-23T14:28:31.724Z,97287.72
2022-12-23T14:30:58.646Z,97286.88
2022-12-23T14:33:31.394Z,97287.84
2022-12-23T14:36:26.911Z,97281.84
2022-12-23T14:39:12.050Z,97286.22
2022-12-23T14:42:08.373Z,97284.47
2022-12-23T14:44:37.742Z,97294.22
2022-12-23T14:47:40.564Z,97291.69
2022-12-23T14:50:44.806Z,97285.53
2022-12-23T14:53:25.311Z,97293.56
2022-12-23T14:56:10.466Z,97291.88
2022-12-23T14:58:46.202Z,97297.09
2022-12-23T15:01:25.513Z,97297.97
2022-12-23T15:04:47.595Z,97300.56
2022-12-23T15:08:14.543Z,97300.44
2022-12-23T15:10:51.578Z,97313.69
2022-12-23T15:13:19.735Z,97307.63
2022-12-23T15:15:59.162Z,97304.22
2022-12-23T15:18:28.604Z,97312.00
2022-12-23T15:21:04.954Z,97305.25
2022-12-23T15:23:34.043Z,97309.72
2022-12-23T15:26:02.352Z,97309.59
2022-12-23T15:28:41.002Z,97300.06
2022-12-23T15:31:35.154Z,97295.66
2022-12-23T15:34:14.857Z,97302.66
2022-12-23T15:36:44.828Z,97314.09
2022-12-23T15:39:20.374Z,97312.34
2022-12-23T15:41:48.408Z,97319.25
2022-12-23T15:44:23.042Z,97315.91
2022-12-23T15:46:51.329Z,97311.53
2022-12-23T15:49:20.433Z,97318.53
2022-12-23T15:52:12.532Z,97317.69
2022-12-23T15:54:53.201Z,97315.16
2022-12-23T15:57:24.320Z,97314.28
2022-12-23T15:59:51.310Z,97313.41
2022-12-23T16:05:34.491Z,97309.19
2022-12-23T16:08:23.191Z,97303.00
2022-12-23T16:11:17.896Z,97312.53
2022-12-23T16:13:59.457Z,97309.06
2022-12-23T16:16:33.822Z,97311.06
2022-12-23T16:19:00.570Z,97313.72
2022-12-23T16:21:34.749Z,97306.75
2022-12-23T16:24:06.493Z,97319.69
2022-12-23T16:26:40.516Z,97308.34
2022-12-23T16:29:10.271Z,97303.31
2022-12-23T16:31:37.702Z,97310.31
2022-12-23T16:34:07.995Z,97310.53
2022-12-23T16:36:36.657Z,97313.94
2022-12-23T16:39:06.996Z,97311.44
2022-12-23T16:41:34.600Z,97318.25
2022-12-23T16:44:01.342Z,97320.00
2022-12-23T16:46:31.680Z,97310.56
2022-12-23T16:49:00.952Z,97303.66
2022-12-23T16:51:30.589Z,97297.56
2022-12-23T16:54:00.499Z,97297.53
2022-12-23T16:56:30.461Z,97291.56
2022-12-23T16:58:57.131Z,97288.25
2022-12-23T17:01:27.736Z,97300.34
2022-12-23T17:03:55.993Z,97298.81
2022-12-23T17:06:23.363Z,97302.69
2022-12-23T17:09:11.999Z,97293.22
2022-12-23T17:11:47.738Z,97299.25
2022-12-23T17:14:30.207Z,97295.03
2022-12-23T17:16:57.651Z,97289.06
2022-12-23T17:19:28.972Z,97296.16
2022-12-23T17:22:01.618Z,97298.78
2022-12-23T17:24:44.565Z,97297.19
2022-12-23T17:27:14.121Z,97289.47
2022-12-23T17:29:44.844Z,97287.78
2022-12-23T17:32:13.998Z,97288.81
2022-12-23T17:35:01.459Z,97283.72
2022-12-23T17:37:31.792Z,97282.97
2022-12-23T17:40:07.316Z,97279.56
2022-12-23T17:42:51.911Z,97278.81
2022-12-23T17:45:43.393Z,97274.56
2022-12-23T17:48:17.996Z,97270.25
2022-12-23T17:50:47.863Z,97274.81
2022-12-23T17:53:26.314Z,97258.38
2022-12-23T17:55:52.955Z,97267.16
2022-12-23T17:58:19.777Z,97267.22
2022-12-23T18:00:47.078Z,97257.72
2022-12-23T18:03:23.911Z,97243.91
2022-12-23T18:06:01.749Z,97243.84
2022-12-23T18:08:29.033Z,97240.44
2022-12-23T18:11:03.082Z,97248.34
2022-12-23T18:16:21.577Z,97229.75
2022-12-23T18:18:48.361Z,97231.53
2022-12-23T18:21:24.696Z,97236.06
2022-12-23T18:23:53.417Z,97237.91
2022-12-23T18:26:22.757Z,97237.75
2022-12-23T18:28:51.381Z,97238.66
2022-12-23T18:31:23.969Z,97243.00
2022-12-23T18:33:51.798Z,97236.94
2022-12-23T18:36:25.969Z,97243.13
2022-12-23T18:38:57.358Z,97244.00
2022-12-23T18:41:27.339Z,97249.25
2022-12-23T18:43:54.458Z,97243.09
2022-12-23T18:46:21.671Z,97245.75
2022-12-23T18:48:48.673Z,97245.00
2022-12-23T18:51:17.460Z,97248.44
2022-12-23T18:53:45.773Z,97246.81
2022-12-23T18:56:14.314Z,97261.59
2022-12-23T18:58:41.101Z,97266.03
2022-12-23T19:01:12.957Z,97261.72
2022-12-23T19:03:40.289Z,97255.59
2022-12-23T19:06:08.833Z,97259.06
2022-12-23T19:08:37.304Z,97257.28
2022-12-23T19:11:15.574Z,97253.91
2022-12-23T19:13:42.290Z,97259.19
2022-12-23T19:16:14.115Z,97257.47
2022-12-23T19:18:41.055Z,97253.25
2022-12-23T19:21:09.336Z,97255.88
2022-12-23T19:23:36.275Z,97253.25
2022-12-23T19:26:05.904Z,97253.31
2022-12-23T19:28:33.692Z,97252.66
2022-12-23T19:31:00.575Z,97254.44
2022-12-23T19:33:27.304Z,97250.09
2022-12-23T19:35:54.960Z,97258.72
2022-12-23T19:38:21.683Z,97260.44
2022-12-23T19:40:57.464Z,97257.94
2022-12-23T19:43:24.128Z,97261.41
2022-12-23T19:45:58.939Z,97263.91
2022-12-23T19:48:26.267Z,97268.28
2022-12-23T19:51:00.916Z,97271.66
2022-12-23T19:53:28.539Z,97269.03
2022-12-23T19:56:10.980Z,97269.00
2022-12-23T19:58:40.154Z,97264.66
2022-12-23T20:01:11.498Z,97263.72
2022-12-23T20:03:38.470Z,97261.19
2022-12-23T20:06:06.976Z,97260.25
2022-12-23T20:08:34.689Z,97261.22
2022-12-23T20:11:09.690Z,97263.03
2022-12-23T20:13:36.822Z,97257.88
2022-12-23T20:16:06.116Z,97264.84
2022-12-23T20:18:33.123Z,97266.59
2022-12-23T20:21:01.246Z,97258.91
2022-12-23T20:23:28.734Z,97263.28
2022-12-23T20:25:59.099Z,97266.66
2022-12-23T20:28:26.235Z,97254.47
2022-12-23T20:31:11.949Z,97256.13
2022-12-23T20:33:40.196Z,97255.25
2022-12-23T20:36:11.365Z,97260.41
2022-12-23T20:38:39.252Z,97262.19
2022-12-23T20:41:07.797Z,97252.78
2022-12-23T20:43:34.850Z,97259.69
2022-12-23T20:46:06.039Z,97262.28
2022-12-23T20:48:34.544Z,97261.56
2022-12-23T20:51:24.839Z,97262.56
2022-12-23T20:53:54.005Z,97260.00
2022-12-23T20:56:21.942Z,97256.63
2022-12-23T20:58:54.904Z,97254.91
2022-12-23T21:01:24.714Z,97253.13
2022-12-23T21:03:52.069Z,97260.97
2022-12-23T21:06:19.645Z,97258.41
2022-12-23T21:08:46.740Z,97252.44
2022-12-23T21:11:16.428Z,97250.72
2022-12-23T21:13:46.195Z,97252.47
2022-12-23T21:16:18.157Z,97249.88
2022-12-23T21:18:50.885Z,97253.47
2022-12-23T21:21:17.867Z,97258.75
2022-12-23T21:23:44.989Z,97264.72
2022-12-23T21:26:15.141Z,97270.72
2022-12-23T21:28:43.627Z,97271.56
2022-12-23T21:31:10.567Z,97272.50
2022-12-23T21:33:39.814Z,97263.00
2022-12-23T21:36:07.833Z,97256.06
2022-12-23T21:38:37.548Z,97257.00
2022-12-23T21:41:07.601Z,97262.09
2022-12-23T21:43:34.488Z,97261.25
2022-12-23T21:46:04.265Z,97259.47
2022-12-23T21:48:32.959Z,97269.03
2022-12-23T21:51:20.260Z,97260.38
2022-12-23T21:53:49.448Z,97252.53
2022-12-23T21:56:19.148Z,97255.88
2022-12-23T21:58:46.385Z,97257.50
2022-12-23T22:01:16.568Z,97262.00
2022-12-23T22:03:44.685Z,97260.28
2022-12-23T22:06:14.962Z,97261.09
2022-12-23T22:08:42.495Z,97263.72
2022-12-23T22:11:12.071Z,97263.75
2022-12-23T22:13:39.700Z,97267.94
2022-12-23T22:16:10.881Z,97268.72
2022-12-23T22:18:38.750Z,97260.81
2022-12-23T22:21:11.845Z,97255.53
2022-12-23T22:23:39.063Z,97258.00
2022-12-23T22:26:07.210Z,97253.75
2022-12-23T22:28:35.859Z,97257.19
2022-12-23T22:31:21.147Z,97255.38
2022-12-23T22:33:47.987Z,97255.31
2022-12-23T22:36:18.059Z,97257.97
2022-12-23T22:38:44.751Z,97251.03
2022-12-23T22:41:11.627Z,97255.38
2022-12-23T22:43:38.431Z,97257.19
2022-12-23T22:46:05.621Z,97256.41
2022-12-23T22:48:32.519Z,97249.38
2022-12-23T22:51:03.211Z,97248.53
2022-12-23T22:53:30.193Z,97242.41
2022-12-23T22:55:59.080Z,97248.50
2022-12-23T22:58:27.705Z,97241.66
2022-12-23T23:00:54.546Z,97234.81
2022-12-23T23:03:21.331Z,97234.72
2022-12-23T23:06:07.039Z,97230.59
2022-12-23T23:08:34.711Z,97236.59
2022-12-23T23:11:03.369Z,97244.28
2022-12-23T23:13:33.104Z,97237.44
2022-12-23T23:15:59.989Z,97239.09
2022-12-23T23:18:27.301Z,97241.56
2022-12-23T23:20:59.922Z,97239.88
2022-12-23T23:23:26.638Z,97237.22
2022-12-23T23:25:53.344Z,97219.00
2022-12-23T23:28:20.006Z,97216.56
2022-12-23T23:30:47.112Z,97209.50
2022-12-23T23:33:14.006Z,97217.22
2022-12-23T23:35:40.729Z,97202.31
2022-12-23T23:38:07.940Z,97208.47
2022-12-23T23:40:34.603Z,97210.19
2022-12-23T23:43:01.400Z,97216.22
2022-12-23T23:45:28.067Z,97215.25
2022-12-23T23:47:55.407Z,97210.00
2022-12-23T23:50:22.023Z,97199.53
2022-12-23T23:52:48.647Z,97197.75
2022-12-23T23:55:15.304Z,97190.75
2022-12-23T23:57:41.931Z,97181.16
